Du har inga inställningar för hoppväder.nu

Hoppväder.nu

Senast uppdaterat 01:50

UTC-tid

2020-07-06 kl. 23:50


Sol och måne

Solen går upp 4:35 och går ner 22:49 (beräknade cirkatider)
Nästa fullmåne blir om 27 dagar (2020-08-03)

METAR

ESMS (Malmö)
(1470 minuter sedan)
ESMS 062320Z 28014KT 9999 FEW027 SCT055 12/08 Q1009=



ESMK (Everöd)
(1470 minuter sedan)
ESMK 062320Z AUTO 28011KT 250V310 9999 FEW030/// SCT037/// 13/08 Q1007=



ESTL (Ljungbyhed)
(1470 minuter sedan)
ESTL 062320Z AUTO 28016G29KT 9999 FEW025/// SCT031/// BKN039/// 13/08 Q1008 RERA=



EKCH (Köpenhamn)
(1470 minuter sedan)
EKCH 062320Z AUTO 27014KT 9999 -RA BKN026/// 12/09 Q1010 tempo 27018g28kt=



ESTA (Ängelholm)
(1470 minuter sedan)
ESTA 062320Z AUTO 28023KT 9999 BKN026/// OVC033/// 13/07 Q1007=



TAF

ESMS (Malmö)
(1482 minuter sedan)
ESMS 062308Z 0700/0724 27012KT 9999 SCT030 TEMPO 0700/0712 27015G25KT FEW020TCU TEMPO 0712/0719 25015G28KT 4000 SHRA SCT012 BKN020CB TEMPO 0719/0724 FEW020TCU=



ESMK (Everöd)
ESMK



ESTL (Ljungbyhed)
ESTL



EKCH (Köpenhamn)
(1482 minuter sedan)
EKCH 062308Z 0700/0724 27012KT 9999 SCT030 TEMPO 0700/0711 27015G25KT FEW020TCU TEMPO 0711/0718 25018G30KT 4000 SHRA SCT012 BKN020CB TEMPO 0718/0724 FEW020TCU=



ESTA (Ängelholm)
ESTA





Kodnycklar till TAF och METAR






LHP

(Eslöv är område se11f i Hela Område 1)

Prognos är inte uppdaterad






Preliminär prognos